Time;durP1;ratioP1;P1;durP2;ratioP2;P2;SDS_P1;SDS_P2;PMS_P1;PMS_P2;Temp;Humidity;BMP_temperature;BMP_pressure;BME280_temperature;BME280_humidity;BME280_pressure;Samples;Min_cycle;Max_cycle;Signal;HPM_P1;HPM_P2
2022/03/04 00:00:58;;;;;;;;;61.50;51.00;;;;;11.48;78.07;101313.72;5059564;28;45303;-58
2022/03/04 00:03:23;;;;;;;;;65.75;50.25;;;;;11.52;78.05;101320.56;5059510;28;45512;-58
2022/03/04 00:05:49;;;;;;;;;67.25;50.00;;;;;11.55;78.09;101318.75;5058971;28;45188;-58
2022/03/04 00:08:14;;;;;;;;;74.00;54.50;;;;;11.59;78.04;101315.16;5054780;28;45468;-58
2022/03/04 00:10:40;;;;;;;;;64.75;49.75;;;;;11.62;78.10;101313.41;5056589;28;45140;-58
2022/03/04 00:13:06;;;;;;;;;68.50;51.25;;;;;11.64;77.86;101320.28;5057582;28;45469;-58
2022/03/04 00:15:32;;;;;;;;;66.50;51.50;;;;;11.68;77.53;101318.47;5059161;27;46428;-58
2022/03/04 00:17:57;;;;;;;;;68.75;51.75;;;;;11.67;77.68;101312.41;5059343;28;45362;-58
2022/03/04 00:20:23;;;;;;;;;69.75;53.25;;;;;11.66;77.54;101313.31;5063167;27;45484;-58
2022/03/04 00:22:49;;;;;;;;;68.75;52.25;;;;;11.66;77.58;101315.06;5057146;28;45606;-58
2022/03/04 00:25:14;;;;;;;;;71.25;51.75;;;;;11.64;77.63;101311.63;5059458;28;46549;-58
2022/03/04 00:27:40;;;;;;;;;63.75;49.25;;;;;11.60;77.37;101313.44;5060102;28;45329;-58
2022/03/04 00:30:07;;;;;;;;;74.25;52.50;;;;;11.55;77.63;101321.34;5059872;28;45285;-58
2022/03/04 00:32:34;;;;;;;;;74.75;53.75;;;;;11.54;77.92;101313.56;5060059;28;45508;-58
2022/03/04 00:34:59;;;;;;;;;70.50;52.50;;;;;11.56;78.21;101314.38;5059539;28;46367;-58
2022/03/04 00:37:24;;;;;;;;;67.75;52.00;;;;;11.58;78.17;101323.00;5060098;28;45177;-58
2022/03/04 00:39:50;;;;;;;;;68.50;52.00;;;;;11.62;78.31;101322.09;5059879;28;45157;-58
2022/03/04 00:42:15;;;;;;;;;72.25;53.25;;;;;11.65;78.25;101318.56;5060104;28;45451;-58
2022/03/04 00:44:40;;;;;;;;;74.00;54.75;;;;;11.64;78.16;101309.88;5059326;28;45956;-58
2022/03/04 00:47:06;;;;;;;;;65.25;49.25;;;;;11.65;77.99;101309.00;5059218;28;45313;-58
2022/03/04 00:49:32;;;;;;;;;72.00;54.75;;;;;11.65;78.24;101310.75;5059688;28;45302;-58
2022/03/04 00:51:58;;;;;;;;;76.25;57.25;;;;;11.64;78.28;101307.28;5059785;28;45438;-58
2022/03/04 00:54:23;;;;;;;;;75.75;55.50;;;;;11.62;78.20;101301.25;5059275;28;45361;-58
2022/03/04 00:56:49;;;;;;;;;72.00;55.75;;;;;11.58;78.24;101302.19;5059789;28;45325;-58
2022/03/04 00:59:14;;;;;;;;;73.75;54.25;;;;;11.58;78.68;101310.00;5059741;28;46576;-58
2022/03/04 01:01:40;;;;;;;;;70.75;52.50;;;;;11.57;78.72;101311.75;5059526;28;45463;-59
2022/03/04 01:04:05;;;;;;;;;74.25;54.50;;;;;11.57;78.65;101303.94;5059285;28;46353;-59
2022/03/04 01:06:31;;;;;;;;;68.75;53.25;;;;;11.58;78.67;101312.59;5058419;28;45258;-59
2022/03/04 01:08:56;;;;;;;;;68.00;50.50;;;;;11.56;78.67;101309.19;5075213;27;45220;-59
2022/03/04 01:11:21;;;;;;;;;78.50;55.75;;;;;11.54;78.85;101310.97;5059575;28;45503;-62
2022/03/04 01:13:47;;;;;;;;;75.00;55.00;;;;;11.51;78.53;101311.91;5059335;28;46117;-62
2022/03/04 01:16:12;;;;;;;;;65.00;51.00;;;;;11.49;78.67;101318.03;5059478;28;45277;-60
2022/03/04 01:18:38;;;;;;;;;68.50;52.00;;;;;11.46;78.67;101308.53;5059639;28;46572;-60
2022/03/04 01:21:03;;;;;;;;;73.25;54.00;;;;;11.44;79.44;101312.06;5062378;28;45296;-60
2022/03/04 01:23:28;;;;;;;;;74.00;55.00;;;;;11.40;79.05;101308.66;5078239;28;48359;-60
2022/03/04 01:25:56;;;;;;;;;67.25;52.25;;;;;11.42;79.31;101316.47;5062887;28;45302;-60
2022/03/04 01:28:22;;;;;;;;;70.00;52.00;;;;;11.44;79.09;101304.28;5062978;28;45253;-59
2022/03/04 01:30:48;;;;;;;;;72.25;53.00;;;;;11.45;79.37;101301.63;5062875;28;45517;-59
2022/03/04 01:33:13;;;;;;;;;76.25;55.00;;;;;11.47;78.99;101304.19;5062842;28;46146;-60
2022/03/04 01:35:39;;;;;;;;;72.75;53.50;;;;;11.49;79.05;101312.81;5062379;28;45271;-60
2022/03/04 01:38:05;;;;;;;;;61.75;48.50;;;;;11.49;79.24;101312.81;5062840;28;45464;-60
2022/03/04 01:40:31;;;;;;;;;78.25;56.75;;;;;11.50;78.85;101315.38;5062810;28;45282;-60
2022/03/04 01:42:56;;;;;;;;;72.00;55.50;;;;;11.44;78.98;101312.94;5061227;28;48353;-61
2022/03/04 01:45:22;;;;;;;;;74.75;55.25;;;;;11.41;79.17;101310.41;5062590;28;45418;-60
2022/03/04 01:47:48;;;;;;;;;72.75;54.25;;;;;11.41;79.45;101304.31;5062240;28;45497;-60
2022/03/04 01:50:13;;;;;;;;;70.50;52.25;;;;;11.39;79.30;101301.75;5062620;28;45225;-60
2022/03/04 01:52:39;;;;;;;;;72.25;52.25;;;;;11.40;79.21;101297.38;5062350;28;45529;-60
2022/03/04 01:55:06;;;;;;;;;74.00;54.25;;;;;11.37;79.36;101295.72;5062348;28;45445;-60
2022/03/04 01:57:32;;;;;;;;;72.50;51.75;;;;;11.33;79.41;101295.81;5061039;28;45598;-59
2022/03/04 01:59:57;;;;;;;;;72.25;52.25;;;;;11.30;79.58;101295.91;5059372;28;45438;-59
2022/03/04 02:02:22;;;;;;;;;75.25;52.00;;;;;11.27;79.45;101295.06;5059832;28;46424;-59
2022/03/04 02:04:51;;;;;;;;;71.75;55.25;;;;;11.25;79.39;101291.66;5057857;28;46786;-59
2022/03/04 02:07:17;;;;;;;;;76.00;54.50;;;;;11.21;79.55;101287.41;5059676;28;45362;-59
2022/03/04 02:09:42;;;;;;;;;75.25;54.50;;;;;11.18;79.59;101287.44;5058174;28;45581;-59
2022/03/04 02:12:07;;;;;;;;;74.50;55.75;;;;;11.13;79.75;101284.09;5061713;28;46367;-60
2022/03/04 02:14:33;;;;;;;;;71.50;54.75;;;;;11.06;79.86;101286.88;5061735;28;45449;-60
2022/03/04 02:16:58;;;;;;;;;74.50;53.50;;;;;11.01;80.14;101286.94;5061990;28;45446;-59
2022/03/04 02:19:24;;;;;;;;;57.00;42.00;;;;;10.96;80.18;101286.19;5064238;28;45840;-60
2022/03/04 02:21:58;;;;;;;;;76.75;54.00;;;;;10.92;80.17;101290.59;5060344;28;45359;-60
2022/03/04 02:24:26;;;;;;;;;71.75;54.75;;;;;10.87;80.47;101275.97;5058494;28;45423;-59
2022/03/04 02:26:53;;;;;;;;;70.50;55.25;;;;;10.82;80.62;101280.44;5060697;28;45514;-59
2022/03/04 02:29:19;;;;;;;;;73.75;56.75;;;;;10.78;80.38;101271.81;5060618;28;45464;-58
2022/03/04 02:31:45;;;;;;;;;75.75;57.50;;;;;10.72;81.21;101279.72;5057772;28;45562;-59
2022/03/04 02:34:10;;;;;;;;;80.25;58.25;;;;;10.65;81.23;101279.00;5062890;28;45421;-59
2022/03/04 02:36:37;;;;;;;;;78.50;58.25;;;;;10.59;81.23;101278.25;5057430;28;45450;-59
2022/03/04 02:39:04;;;;;;;;;75.25;57.00;;;;;10.51;81.65;101277.53;5053190;28;45232;-59
2022/03/04 02:41:30;;;;;;;;;71.00;53.25;;;;;10.50;81.67;101288.81;5061709;28;46220;-59
2022/03/04 02:43:55;;;;;;;;;77.75;56.00;;;;;10.48;82.35;101282.81;5062056;28;45493;-58
2022/03/04 02:46:21;;;;;;;;;74.50;53.50;;;;;10.47;82.25;101283.69;5060977;28;45596;-58
2022/03/04 02:48:46;;;;;;;;;54.50;39.50;;;;;10.45;82.15;101281.13;5060530;28;45536;-58
2022/03/04 02:51:11;;;;;;;;;74.25;54.50;;;;;10.44;82.61;101284.59;5061441;28;46223;-60
2022/03/04 02:53:37;;;;;;;;;78.25;57.50;;;;;10.40;82.24;101282.06;5061223;28;45322;-58
2022/03/04 02:56:03;;;;;;;;;76.75;54.25;;;;;10.35;82.97;101282.16;5060280;28;45524;-58
2022/03/04 02:58:28;;;;;;;;;75.50;54.50;;;;;10.33;82.77;101286.53;5061600;28;45407;-59
2022/03/04 03:00:54;;;;;;;;;71.50;51.75;;;;;10.33;83.25;101292.56;5061171;28;46712;-59
2022/03/04 03:03:19;;;;;;;;;74.00;56.50;;;;;10.29;83.73;101296.13;5060040;28;45423;-59
2022/03/04 03:05:45;;;;;;;;;75.25;54.75;;;;;10.29;83.51;101282.28;5060981;28;45261;-59
2022/03/04 03:08:11;;;;;;;;;69.75;54.00;;;;;10.29;82.75;101288.31;5060052;28;45499;-59
2022/03/04 03:10:36;;;;;;;;;66.75;53.25;;;;;10.29;83.04;101290.06;5060951;28;45362;-59
2022/03/04 03:13:03;;;;;;;;;68.75;52.50;;;;;10.33;82.82;101286.53;5061198;28;45302;-59
2022/03/04 03:15:28;;;;;;;;;68.00;53.50;;;;;10.33;82.39;101287.38;5061191;28;45238;-59
2022/03/04 03:17:54;;;;;;;;;74.25;52.50;;;;;10.34;82.93;101286.50;5061211;28;45281;-59
2022/03/04 03:20:20;;;;;;;;;68.75;52.25;;;;;10.33;82.86;101284.78;5060381;28;45421;-59
2022/03/04 03:22:45;;;;;;;;;60.50;48.50;;;;;10.31;83.19;101290.88;5061110;28;45292;-59
2022/03/04 03:25:12;;;;;;;;;67.75;50.75;;;;;10.31;82.74;101290.88;5059517;28;45590;-59
2022/03/04 03:27:38;;;;;;;;;58.00;47.50;;;;;10.33;82.35;101292.56;5060702;28;45354;-60
2022/03/04 03:30:05;;;;;;;;;60.75;47.50;;;;;10.32;82.40;101282.22;5059717;28;45446;-60
2022/03/04 03:32:30;;;;;;;;;60.50;45.75;;;;;10.35;82.19;101293.41;5060394;28;45273;-60
2022/03/04 03:34:56;;;;;;;;;58.00;46.00;;;;;10.41;82.02;101296.75;5060127;28;45406;-61
2022/03/04 03:37:21;;;;;;;;;63.00;46.75;;;;;10.44;82.03;101296.75;5059263;28;45458;-60
2022/03/04 03:39:47;;;;;;;;;59.25;47.00;;;;;10.49;81.97;101298.38;5060033;28;46265;-62
2022/03/04 03:42:12;;;;;;;;;58.50;47.00;;;;;10.50;81.89;101305.28;5059606;28;45423;-62
2022/03/04 03:44:38;;;;;;;;;66.00;48.00;;;;;10.50;82.31;101302.66;5060039;28;45224;-61
2022/03/04 03:47:03;;;;;;;;;58.50;46.25;;;;;10.47;81.74;101300.13;5059721;28;45252;-61
2022/03/04 03:49:29;;;;;;;;;60.50;45.25;;;;;10.48;81.22;101311.38;5059615;28;45504;-61
2022/03/04 03:51:54;;;;;;;;;50.75;37.75;;;;;10.47;81.64;101301.88;5060056;28;45358;-61
2022/03/04 03:54:19;;;;;;;;;64.75;47.50;;;;;10.47;81.58;101307.94;5059982;28;45262;-61
2022/03/04 03:56:45;;;;;;;;;65.75;46.00;;;;;10.45;81.47;101304.50;5060186;28;45437;-61
2022/03/04 03:59:10;;;;;;;;;63.75;47.25;;;;;10.42;82.20;101311.50;5060368;28;45497;-60
2022/03/04 04:01:36;;;;;;;;;58.25;42.25;;;;;10.40;82.54;101306.31;5060420;28;45351;-60
2022/03/04 04:04:02;;;;;;;;;65.25;47.00;;;;;10.37;81.61;101308.97;5060458;28;45397;-60
2022/03/04 04:06:27;;;;;;;;;62.75;48.25;;;;;10.37;81.69;101314.16;5060477;28;45566;-60
2022/03/04 04:08:52;;;;;;;;;59.00;47.00;;;;;10.38;82.03;101308.06;5060337;28;45370;-60
2022/03/04 04:11:18;;;;;;;;;63.25;48.75;;;;;10.38;82.03;101300.28;5060491;28;45347;-61
2022/03/04 04:13:44;;;;;;;;;59.75;46.50;;;;;10.36;82.48;101308.09;5076013;28;45394;-60
2022/03/04 04:16:09;;;;;;;;;60.00;47.25;;;;;10.38;82.52;101315.00;5060421;28;45422;-60
2022/03/04 04:18:36;;;;;;;;;65.00;51.50;;;;;10.38;81.70;101318.47;5060088;28;45543;-61
2022/03/04 04:21:02;;;;;;;;;58.50;44.00;;;;;10.38;81.93;101315.88;5065737;28;45357;-62
2022/03/04 04:23:27;;;;;;;;;66.25;47.75;;;;;10.40;81.94;101319.28;5067352;28;45437;-58
2022/03/04 04:25:53;;;;;;;;;64.75;49.00;;;;;10.43;82.02;101321.88;5074156;27;45211;-58
2022/03/04 04:28:18;;;;;;;;;69.50;53.00;;;;;10.45;81.56;101317.50;5066257;28;45386;-60
2022/03/04 04:30:43;;;;;;;;;64.75;50.75;;;;;10.44;81.97;101320.13;5060224;28;45223;-61
2022/03/04 04:33:09;;;;;;;;;58.75;46.25;;;;;10.42;82.47;101320.16;5058842;28;45284;-61
2022/03/04 04:35:34;;;;;;;;;67.00;49.75;;;;;10.41;82.11;101320.16;5060061;28;45259;-62
2022/03/04 04:37:59;;;;;;;;;69.75;50.00;;;;;10.41;81.86;101320.16;5059208;28;45485;-61
2022/03/04 04:40:25;;;;;;;;;65.00;49.33;;;;;10.41;82.11;101323.63;5059955;28;45235;-61
2022/03/04 04:42:50;;;;;;;;;66.00;51.25;;;;;10.40;82.60;101321.91;5059893;28;45592;-61
2022/03/04 04:45:16;;;;;;;;;61.00;48.50;;;;;10.39;82.24;101314.97;5059887;28;46592;-60
2022/03/04 04:47:41;;;;;;;;;62.00;48.00;;;;;10.39;82.70;101322.78;5059432;28;45509;-61
2022/03/04 04:50:07;;;;;;;;;64.00;48.25;;;;;10.39;83.44;101322.78;5059477;28;45323;-61
2022/03/04 04:52:33;;;;;;;;;61.25;47.75;;;;;10.38;82.52;101328.84;5058452;28;45473;-61
2022/03/04 04:54:58;;;;;;;;;67.75;51.25;;;;;10.39;82.64;101333.16;5058366;28;45430;-61
2022/03/04 04:57:23;;;;;;;;;67.25;50.50;;;;;10.42;82.54;101329.69;5059154;28;46446;-60
2022/03/04 04:59:49;;;;;;;;;72.00;53.25;;;;;10.46;82.77;101326.16;5058910;28;45382;-60
2022/03/04 05:02:14;;;;;;;;;67.50;51.50;;;;;10.49;82.89;101328.69;5058926;28;45469;-60
2022/03/04 05:04:39;;;;;;;;;67.75;51.25;;;;;10.51;82.71;101325.19;5057347;28;45387;-60
2022/03/04 05:07:05;;;;;;;;;63.00;49.75;;;;;10.53;82.69;101327.75;5058625;28;45411;-60
2022/03/04 05:09:31;;;;;;;;;73.75;49.50;;;;;10.52;82.72;101332.09;5057587;28;45266;-61
2022/03/04 05:11:56;;;;;;;;;65.00;48.50;;;;;10.47;82.80;101336.50;5059017;28;45215;-60
2022/03/04 05:14:21;;;;;;;;;60.75;46.00;;;;;10.43;82.35;101334.00;5058871;28;45311;-60
2022/03/04 05:16:47;;;;;;;;;66.75;49.75;;;;;10.40;83.15;101334.03;5058417;28;45394;-60
2022/03/04 05:19:12;;;;;;;;;63.75;46.50;;;;;10.41;82.63;101335.75;5058541;28;45390;-60
2022/03/04 05:21:38;;;;;;;;;62.50;49.25;;;;;10.44;83.16;101343.50;5058617;28;45216;-59
2022/03/04 05:24:06;;;;;;;;;63.00;50.75;;;;;10.45;83.32;101334.84;5058993;28;46252;-59
2022/03/04 05:26:34;;;;;;;;;63.75;48.75;;;;;10.52;82.98;101336.44;5056200;28;46205;-59
2022/03/04 05:29:02;;;;;;;;;66.75;50.00;;;;;10.56;82.91;101346.72;5058560;28;45317;-60
2022/03/04 05:31:28;;;;;;;;;65.75;45.75;;;;;10.58;82.47;101344.97;5058393;28;45257;-59
2022/03/04 05:33:54;;;;;;;;;65.75;50.25;;;;;10.59;82.83;101338.88;5058561;28;45362;-59
2022/03/04 05:36:20;;;;;;;;;69.25;52.50;;;;;10.64;82.49;101344.88;5058199;28;45695;-59
2022/03/04 05:38:46;;;;;;;;;63.75;50.00;;;;;10.67;82.53;101346.56;5058576;28;45200;-60
2022/03/04 05:41:12;;;;;;;;;69.50;52.00;;;;;10.70;82.74;101340.44;5058967;28;45380;-60
2022/03/04 05:43:38;;;;;;;;;66.50;49.50;;;;;10.71;82.20;101342.16;5059223;28;45310;-60
2022/03/04 05:46:04;;;;;;;;;68.75;53.25;;;;;10.73;82.21;101343.84;5058227;28;45657;-60
2022/03/04 05:48:29;;;;;;;;;65.25;48.50;;;;;10.74;82.27;101347.28;5058913;28;45342;-59
2022/03/04 05:50:55;;;;;;;;;65.25;51.00;;;;;10.71;82.16;101343.00;5058940;28;45252;-59
2022/03/04 05:53:20;;;;;;;;;68.75;48.75;;;;;10.65;82.20;101341.38;5057114;28;45701;-60
2022/03/04 05:55:45;;;;;;;;;69.00;49.50;;;;;10.60;82.50;101339.72;5058667;28;45344;-60
2022/03/04 05:58:11;;;;;;;;;70.25;51.00;;;;;10.59;83.01;101346.66;5058713;28;45531;-60
2022/03/04 06:00:36;;;;;;;;;65.25;52.75;;;;;10.63;83.00;101348.34;5057577;28;46287;-60
2022/03/04 06:03:02;;;;;;;;;69.50;51.50;;;;;10.69;82.69;101349.13;5058714;28;45420;-60
2022/03/04 06:05:27;;;;;;;;;64.00;51.50;;;;;10.76;82.63;101348.13;5059644;28;46374;-60
2022/03/04 06:07:52;;;;;;;;;68.50;52.75;;;;;10.80;82.72;101350.63;5062078;28;45234;-62
2022/03/04 06:10:18;;;;;;;;;71.50;53.25;;;;;10.85;82.34;101356.63;5062106;28;45138;-61
2022/03/04 06:12:43;;;;;;;;;67.25;53.25;;;;;10.86;82.45;101357.47;5062035;28;45362;-61
2022/03/04 06:15:09;;;;;;;;;66.75;51.00;;;;;10.86;82.09;101365.28;5061731;28;46216;-60
2022/03/04 06:17:34;;;;;;;;;71.50;54.00;;;;;10.80;82.16;101354.97;5062185;28;45153;-60
2022/03/04 06:20:00;;;;;;;;;69.00;52.50;;;;;10.82;82.96;101371.44;5061394;28;45537;-60
2022/03/04 06:22:26;;;;;;;;;62.75;46.75;;;;;10.81;82.33;101364.47;5060417;28;45888;-60
2022/03/04 06:24:51;;;;;;;;;66.75;49.00;;;;;10.87;82.57;101370.44;5060226;28;46810;-60
2022/03/04 06:27:17;;;;;;;;;67.50;51.25;;;;;10.90;82.44;101374.72;5060700;28;46325;-60
2022/03/04 06:29:42;;;;;;;;;74.75;53.50;;;;;10.93;82.22;101370.31;5061633;28;45403;-60
2022/03/04 06:32:08;;;;;;;;;71.00;51.25;;;;;10.96;82.11;101377.19;5061715;28;45297;-60
2022/03/04 06:34:34;;;;;;;;;71.50;50.50;;;;;10.97;81.98;101374.56;5058718;28;45616;-61
2022/03/04 06:36:59;;;;;;;;;69.50;51.25;;;;;11.01;81.96;101371.91;5061655;28;45825;-61
2022/03/04 06:39:25;;;;;;;;;72.75;52.25;;;;;11.03;81.62;101375.38;5060310;28;45431;-60
2022/03/04 06:41:50;;;;;;;;;69.25;52.25;;;;;11.05;81.66;101371.84;5061709;28;45533;-61
2022/03/04 06:44:16;;;;;;;;;74.25;52.25;;;;;11.10;81.36;101389.97;5061302;28;45472;-60
2022/03/04 06:46:41;;;;;;;;;71.50;51.50;;;;;11.12;81.27;101389.03;5051565;28;45306;-60
2022/03/04 06:49:10;;;;;;;;;73.00;50.25;;;;;11.16;81.35;101393.28;5059656;28;45301;-60
2022/03/04 06:51:37;;;;;;;;;68.00;52.00;;;;;11.21;80.97;101403.59;5061502;28;45245;-61
2022/03/04 06:54:02;;;;;;;;;67.75;50.00;;;;;11.22;80.81;101398.38;5061019;28;46643;-61
2022/03/04 06:56:28;;;;;;;;;66.50;50.25;;;;;11.25;80.80;101403.53;5060990;28;45316;-60
2022/03/04 06:58:53;;;;;;;;;70.25;51.50;;;;;11.26;80.43;101401.78;5061342;28;45356;-62
2022/03/04 07:01:18;;;;;;;;;63.50;48.00;;;;;11.28;80.34;101403.47;5060750;28;45346;-60
2022/03/04 07:03:44;;;;;;;;;71.75;50.00;;;;;11.30;80.32;101410.38;5059646;28;45410;-60
2022/03/04 07:06:09;;;;;;;;;68.00;52.25;;;;;11.25;80.44;101406.13;5060802;28;45330;-60
2022/03/04 07:08:37;;;;;;;;;74.50;50.00;;;;;11.23;80.40;101418.31;5060824;28;45885;-60
2022/03/04 07:11:03;;;;;;;;;72.00;54.50;;;;;11.22;80.52;101424.41;5059863;28;45627;-61
2022/03/04 07:13:28;;;;;;;;;63.50;49.00;;;;;11.19;80.91;101418.38;5061249;28;45161;-61
2022/03/04 07:15:53;;;;;;;;;68.25;51.25;;;;;11.18;80.51;101422.72;5060675;28;45333;-61
2022/03/04 07:18:19;;;;;;;;;63.50;48.25;;;;;11.17;80.24;101418.41;5060575;28;45287;-61
2022/03/04 07:20:45;;;;;;;;;59.75;46.25;;;;;11.22;80.10;101426.16;5060378;28;45499;-63
2022/03/04 07:23:10;;;;;;;;;64.00;47.75;;;;;11.26;80.10;101430.41;5061083;28;46174;-64
2022/03/04 07:25:36;;;;;;;;;72.25;49.75;;;;;11.28;80.18;101437.28;5060763;28;45465;-63
2022/03/04 07:28:02;;;;;;;;;65.00;49.00;;;;;11.27;79.76;101426.91;5060995;28;45426;-60
2022/03/04 07:30:27;;;;;;;;;73.50;50.75;;;;;11.30;80.21;101436.41;5060197;28;45353;-60
2022/03/04 07:32:53;;;;;;;;;72.25;53.25;;;;;11.28;79.69;101437.28;5060594;28;46416;-59
2022/03/04 07:35:18;;;;;;;;;67.25;48.00;;;;;11.30;79.89;101439.00;5060513;28;45334;-60
2022/03/04 07:37:44;;;;;;;;;65.75;48.25;;;;;11.30;79.97;101441.59;5060578;28;45403;-59
2022/03/04 07:40:13;;;;;;;;;65.50;52.00;;;;;11.33;80.36;101446.75;5060347;28;45453;-59
2022/03/04 07:42:39;;;;;;;;;70.25;50.00;;;;;11.36;80.12;101454.50;5058650;28;48137;-59
2022/03/04 07:45:08;;;;;;;;;65.75;51.75;;;;;11.37;80.88;101445.78;5060334;28;45248;-59
2022/03/04 07:47:33;;;;;;;;;64.75;46.75;;;;;11.39;79.99;101451.81;5062068;28;45271;-60
2022/03/04 07:49:59;;;;;;;;;67.00;51.25;;;;;11.36;80.68;101457.94;5059940;28;45339;-60
2022/03/04 07:52:31;;;;;;;;;74.50;52.50;;;;;11.38;79.87;101455.31;5060237;28;46793;-61
2022/03/04 07:54:57;;;;;;;;;69.50;50.25;;;;;11.39;80.12;101452.69;5059555;28;45461;-61
2022/03/04 07:57:22;;;;;;;;;69.00;52.00;;;;;11.45;80.18;101455.19;5060383;28;45538;-61
2022/03/04 07:59:48;;;;;;;;;78.25;55.50;;;;;11.51;79.83;101451.59;5060210;28;45314;-62
2022/03/04 08:02:13;;;;;;;;;68.50;52.75;;;;;11.56;80.09;101448.00;5060133;28;45415;-61
2022/03/04 08:04:45;;;;;;;;;73.75;52.75;;;;;11.61;79.79;101457.47;5059958;28;45471;-62
2022/03/04 08:07:10;;;;;;;;;71.50;51.25;;;;;11.61;79.69;101457.47;5059066;28;45338;-61
2022/03/04 08:09:36;;;;;;;;;74.50;54.00;;;;;11.64;79.34;101453.06;5060147;28;45205;-61
2022/03/04 08:12:02;;;;;;;;;73.25;54.50;;;;;11.68;79.22;101456.47;5059958;28;45547;-61
2022/03/04 08:14:28;;;;;;;;;71.50;54.00;;;;;11.70;78.71;101459.91;5075783;28;45358;-61
2022/03/04 08:16:53;;;;;;;;;70.25;53.25;;;;;11.69;78.50;101466.00;5059980;28;45602;-61
2022/03/04 08:19:18;;;;;;;;;69.50;51.50;;;;;11.66;78.58;101469.53;5075689;28;45484;-63
2022/03/04 08:21:45;;;;;;;;;70.25;51.25;;;;;11.73;78.45;101467.63;5059588;28;46287;-61
2022/03/04 08:24:11;;;;;;;;;73.25;54.50;;;;;11.79;78.34;101473.59;5059822;28;45334;-59
2022/03/04 08:26:38;;;;;;;;;65.50;48.25;;;;;11.88;78.17;101469.97;5059832;28;45249;-60
2022/03/04 08:29:05;;;;;;;;;66.75;51.00;;;;;11.87;77.52;101474.31;5059973;28;45493;-59
2022/03/04 08:31:30;;;;;;;;;67.75;50.25;;;;;11.87;77.71;101476.06;5059369;28;45197;-59
2022/03/04 08:33:56;;;;;;;;;65.75;53.00;;;;;11.92;77.40;101476.81;5058291;28;45702;-59
2022/03/04 08:36:21;;;;;;;;;65.75;50.25;;;;;12.00;76.93;101482.72;5059681;28;45319;-58
2022/03/04 08:38:47;;;;;;;;;70.75;49.75;;;;;11.99;76.90;101478.38;5059729;28;45294;-58
2022/03/04 08:41:13;;;;;;;;;58.25;47.00;;;;;12.04;76.69;101486.13;5058624;28;46334;-60
2022/03/04 08:43:39;;;;;;;;;69.50;52.25;;;;;12.09;76.57;101484.28;5059227;28;45431;-60
2022/03/04 08:46:05;;;;;;;;;65.50;49.25;;;;;12.11;76.28;101480.75;5058680;28;45740;-60
2022/03/04 08:48:30;;;;;;;;;66.25;51.25;;;;;12.15;75.59;101479.78;5059761;28;45394;-61
2022/03/04 08:50:56;;;;;;;;;67.25;49.50;;;;;12.17;75.45;101482.34;5059506;28;45316;-61
2022/03/04 08:53:22;;;;;;;;;65.75;48.25;;;;;12.16;75.08;101486.69;5059295;28;45240;-61
2022/03/04 08:55:48;;;;;;;;;66.50;47.25;;;;;12.13;74.91;101484.16;5059579;28;45246;-58
2022/03/04 08:58:13;;;;;;;;;72.00;52.50;;;;;12.17;75.46;101490.16;5059615;28;45248;-59
2022/03/04 09:00:39;;;;;;;;;71.75;51.25;;;;;12.25;75.35;101490.00;5059253;28;45545;-59
2022/03/04 09:03:04;;;;;;;;;72.25;51.50;;;;;12.34;75.53;101488.03;5046583;28;45184;-59
2022/03/04 09:05:30;;;;;;;;;71.75;53.75;;;;;12.44;75.21;101493.91;5059405;28;45473;-59
2022/03/04 09:07:56;;;;;;;;;66.50;49.50;;;;;12.52;74.97;101486.75;5046303;28;45231;-59
2022/03/04 09:10:22;;;;;;;;;67.25;47.75;;;;;12.59;74.62;101497.91;5059182;28;45990;-59
2022/03/04 09:12:47;;;;;;;;;62.00;47.50;;;;;12.61;73.97;101496.09;5059435;28;45574;-59
2022/03/04 09:15:12;;;;;;;;;68.25;50.00;;;;;12.63;74.14;101495.19;5058780;28;45325;-59
2022/03/04 09:17:40;;;;;;;;;73.25;53.00;;;;;12.70;73.68;101493.28;5059427;28;45372;-59
2022/03/04 09:20:06;;;;;;;;;65.75;49.75;;;;;12.78;74.03;101493.94;5058281;28;46219;-59
2022/03/04 09:22:31;;;;;;;;;72.75;51.75;;;;;12.82;73.89;101484.31;5058800;28;45417;-59
2022/03/04 09:24:57;;;;;;;;;73.25;53.50;;;;;12.89;73.64;101488.47;5058874;28;45315;-58
2022/03/04 09:27:22;;;;;;;;;65.75;48.00;;;;;12.90;73.15;101488.44;5058651;28;45323;-59
2022/03/04 09:29:47;;;;;;;;;73.75;53.25;;;;;12.93;73.23;101490.13;5057111;28;46584;-69
2022/03/04 09:32:13;;;;;;;;;70.25;51.00;;;;;12.97;72.77;101492.59;5058052;28;45425;-68
2022/03/04 09:34:38;;;;;;;;;72.75;51.75;;;;;12.99;72.07;101492.56;5057562;28;45261;-64
2022/03/04 09:37:04;;;;;;;;;66.75;51.25;;;;;12.96;71.89;101498.72;5059366;28;45219;-63
2022/03/04 09:39:30;;;;;;;;;74.00;52.00;;;;;12.93;72.28;101496.19;5058674;28;45290;-64
2022/03/04 09:41:56;;;;;;;;;69.75;54.00;;;;;12.98;72.00;101493.47;5078242;28;45767;-64
2022/03/04 09:44:21;;;;;;;;;65.75;50.75;;;;;13.03;72.17;101494.22;5062142;28;45279;-64
2022/03/04 09:46:47;;;;;;;;;67.25;53.25;;;;;13.06;71.98;101491.53;5060660;28;45477;-64
2022/03/04 09:49:17;;;;;;;;;71.25;53.25;;;;;13.07;72.54;101498.47;5060372;28;45358;-64
2022/03/04 09:51:43;;;;;;;;;70.25;52.00;;;;;13.13;71.92;101494.81;5060241;28;45357;-64
2022/03/04 09:54:09;;;;;;;;;61.50;48.50;;;;;13.17;71.95;101492.09;5059986;28;45469;-64
2022/03/04 09:56:34;;;;;;;;;70.00;51.50;;;;;13.21;71.29;101493.75;5060091;28;45380;-67
2022/03/04 09:59:01;;;;;;;;;64.00;47.00;;;;;13.09;70.90;101489.69;5062220;28;45411;-71
2022/03/04 10:01:26;;;;;;;;;70.25;51.75;;;;;13.08;71.62;101493.19;5062277;28;45758;-67
2022/03/04 10:03:54;;;;;;;;;71.00;53.00;;;;;13.13;71.16;101489.59;5094699;27;45598;-65
2022/03/04 10:06:20;;;;;;;;;75.00;53.00;;;;;13.24;71.37;101503.28;5049325;28;45343;-61
2022/03/04 10:08:51;;;;;;;;;71.00;53.00;;;;;13.27;70.92;101500.59;5060594;28;47168;-62
2022/03/04 10:11:34;;;;;;;;;69.25;50.25;;;;;13.33;70.84;101503.03;5062094;28;45888;-63
2022/03/04 10:14:06;;;;;;;;;74.00;53.25;;;;;13.35;70.69;101506.44;5061793;28;45370;-62
2022/03/04 10:16:33;;;;;;;;;74.25;52.75;;;;;13.36;70.75;101497.72;5061693;28;45689;-65
2022/03/04 10:19:09;;;;;;;;;64.25;49.50;;;;;13.38;70.79;101503.75;5060659;28;45275;-63
2022/03/04 10:21:43;;;;;;;;;75.25;53.00;;;;;13.39;70.54;101503.69;5061437;28;45716;-69
2022/03/04 10:24:09;;;;;;;;;71.50;53.75;;;;;13.40;70.59;101502.81;5049278;28;45457;-63
2022/03/04 10:26:34;;;;;;;;;68.25;50.25;;;;;13.40;70.69;101505.41;5061023;28;45228;-62
2022/03/04 10:29:15;;;;;;;;;68.25;53.00;;;;;13.40;70.48;101504.56;5061269;28;45316;-63
2022/03/04 10:31:40;;;;;;;;;73.50;53.25;;;;;13.44;70.58;101511.44;5060901;28;45362;-64
2022/03/04 10:34:07;;;;;;;;;69.00;55.00;;;;;13.43;70.00;101509.72;5060894;28;45267;-62
2022/03/04 10:36:33;;;;;;;;;66.75;50.25;;;;;13.36;69.40;101510.75;5058565;28;46046;-65
2022/03/04 10:39:08;;;;;;;;;73.00;55.00;;;;;13.30;69.97;101498.75;5061197;28;45563;-63
2022/03/04 10:41:35;;;;;;;;;72.75;55.50;;;;;13.31;70.36;101512.66;5061221;28;45174;-64
2022/03/04 10:44:21;;;;;;;;;72.50;52.25;;;;;13.28;69.79;101510.97;5060068;28;45327;-65
2022/03/04 10:46:56;;;;;;;;;70.25;53.00;;;;;13.32;70.16;101519.59;5051507;28;45681;-64
2022/03/04 10:49:26;;;;;;;;;72.00;54.50;;;;;13.32;69.67;101519.59;5060666;28;45496;-64
2022/03/04 10:52:05;;;;;;;;;75.75;54.50;;;;;13.31;69.47;101512.66;5094043;27;45247;-66
2022/03/04 10:54:30;;;;;;;;;69.00;52.25;;;;;13.33;69.66;101513.47;5059171;28;45662;-66
2022/03/04 10:56:56;;;;;;;;;70.75;52.75;;;;;13.38;69.42;101507.22;5058798;28;45373;-64
2022/03/04 10:59:23;;;;;;;;;72.00;54.25;;;;;13.43;69.21;101509.72;5059605;28;45387;-63
2022/03/04 11:01:50;;;;;;;;;68.75;51.25;;;;;13.49;68.83;101513.91;5060793;28;45776;-63
2022/03/04 11:04:19;;;;;;;;;71.50;52.50;;;;;13.56;69.18;101511.09;5060923;28;45463;-64